createdAt,value
2018-04-14T00:01:22.808Z,39.43
2018-04-14T00:04:25.333Z,36.40
2018-04-14T00:07:27.793Z,36.87
2018-04-14T00:10:30.427Z,34.20
2018-04-14T00:13:32.909Z,36.87
2018-04-14T00:16:35.465Z,37.10
2018-04-14T00:19:37.979Z,39.40
2018-04-14T00:22:40.532Z,38.43
2018-04-14T00:25:43.160Z,37.13
2018-04-14T00:28:45.685Z,36.13
2018-04-14T00:31:48.225Z,37.43
2018-04-14T00:34:50.725Z,40.77
2018-04-14T00:37:53.195Z,39.20
2018-04-14T00:40:55.777Z,40.40
2018-04-14T00:43:58.254Z,39.30
2018-04-14T00:47:00.739Z,40.60
2018-04-14T00:50:03.247Z,39.50
2018-04-14T00:53:17.477Z,38.50
2018-04-14T00:56:19.993Z,40.07
2018-04-14T00:59:22.448Z,38.10
2018-04-14T01:02:24.963Z,38.10
2018-04-14T01:05:27.428Z,37.57
2018-04-14T01:08:29.964Z,38.23
2018-04-14T01:11:32.491Z,37.50
2018-04-14T01:14:35.010Z,37.90
2018-04-14T01:17:37.493Z,38.10
2018-04-14T01:20:40.034Z,38.17
2018-04-14T01:23:42.521Z,39.80
2018-04-14T01:26:45.015Z,37.70
2018-04-14T01:29:47.519Z,38.50
2018-04-14T01:32:50.017Z,40.30
2018-04-14T01:35:52.495Z,39.30
2018-04-14T01:38:55.000Z,40.40
2018-04-14T01:41:57.481Z,40.70
2018-04-14T01:44:59.990Z,40.27
2018-04-14T01:48:02.501Z,41.17
2018-04-14T01:51:04.972Z,42.20
2018-04-14T01:54:07.460Z,42.53
2018-04-14T01:57:09.969Z,43.90
2018-04-14T02:00:12.495Z,43.33
2018-04-14T02:03:14.994Z,42.83
2018-04-14T02:06:17.471Z,42.60
2018-04-14T02:09:19.955Z,44.07
2018-04-14T02:12:22.464Z,42.80
2018-04-14T02:15:24.963Z,43.10
2018-04-14T02:18:27.432Z,43.10
2018-04-14T02:21:30.476Z,43.17
2018-04-14T02:24:32.938Z,43.20
2018-04-14T02:27:35.416Z,44.23
2018-04-14T02:30:37.909Z,44.93
2018-04-14T02:33:40.495Z,44.10
2018-04-14T02:36:42.977Z,43.40
2018-04-14T02:39:45.472Z,44.60
2018-04-14T02:42:48.009Z,42.90
2018-04-14T02:45:50.480Z,44.37
2018-04-14T02:48:52.967Z,47.00
2018-04-14T02:51:55.590Z,46.10
2018-04-14T02:54:58.080Z,47.70
2018-04-14T02:58:00.592Z,46.00
2018-04-14T03:01:03.073Z,44.80
2018-04-14T03:04:06.861Z,46.53
2018-04-14T03:07:09.351Z,43.73
2018-04-14T03:10:11.875Z,46.80
2018-04-14T03:13:14.379Z,47.40
2018-04-14T03:16:16.990Z,46.70
2018-04-14T03:19:19.507Z,48.03
2018-04-14T03:22:21.973Z,46.67
2018-04-14T03:25:24.475Z,47.47
2018-04-14T03:28:27.010Z,45.60
2018-04-14T03:31:29.558Z,47.70
2018-04-14T03:34:32.049Z,45.50
2018-04-14T03:37:34.641Z,49.83
2018-04-14T03:40:37.160Z,47.50
2018-04-14T03:43:39.641Z,48.87
2018-04-14T03:46:42.134Z,45.70
2018-04-14T03:49:44.646Z,47.83
2018-04-14T03:52:47.154Z,47.63
2018-04-14T03:55:49.740Z,49.07
2018-04-14T03:58:52.255Z,49.80
2018-04-14T04:01:54.784Z,51.57
2018-04-14T04:04:57.267Z,50.10
2018-04-14T04:07:59.785Z,49.47
2018-04-14T04:11:02.240Z,51.07
2018-04-14T04:14:04.817Z,50.97
2018-04-14T04:17:07.313Z,49.40
2018-04-14T04:20:21.627Z,49.33
2018-04-14T04:23:36.011Z,50.17
2018-04-14T04:26:38.500Z,47.37
2018-04-14T04:29:40.997Z,48.97
2018-04-14T04:32:43.499Z,51.70
2018-04-14T04:35:45.954Z,49.70
2018-04-14T04:38:48.446Z,49.63
2018-04-14T04:41:50.996Z,48.63
2018-04-14T04:44:53.496Z,47.80
2018-04-14T04:47:56.016Z,47.50
2018-04-14T04:50:58.657Z,48.03
2018-04-14T04:54:01.235Z,47.90
2018-04-14T04:57:03.892Z,47.90
2018-04-14T05:00:06.343Z,45.73
2018-04-14T05:03:08.841Z,47.23
2018-04-14T05:06:11.306Z,44.50
2018-04-14T05:09:13.817Z,45.07
2018-04-14T05:12:16.288Z,45.77
2018-04-14T05:15:18.777Z,45.13
2018-04-14T05:18:21.249Z,44.83
2018-04-14T05:21:23.738Z,43.23
2018-04-14T05:24:26.266Z,42.87
2018-04-14T05:27:28.763Z,42.73
2018-04-14T05:30:31.237Z,42.83
2018-04-14T05:33:33.699Z,44.57
2018-04-14T05:36:36.178Z,45.23
2018-04-14T05:39:38.726Z,42.87
2018-04-14T05:42:41.212Z,44.93
2018-04-14T05:45:43.804Z,43.67
2018-04-14T05:48:46.269Z,44.00
2018-04-14T05:51:48.777Z,44.33
2018-04-14T05:54:51.238Z,42.60
2018-04-14T05:57:53.739Z,42.33
2018-04-14T06:00:56.228Z,38.33
2018-04-14T06:03:58.741Z,41.80
2018-04-14T06:07:01.217Z,40.93
2018-04-14T06:10:03.691Z,41.70
2018-04-14T06:13:06.329Z,39.40
2018-04-14T06:16:08.794Z,41.07
2018-04-14T06:19:11.312Z,40.53
2018-04-14T06:22:13.875Z,39.60
2018-04-14T06:25:16.365Z,37.93
2018-04-14T06:28:18.973Z,39.07
2018-04-14T06:31:21.472Z,37.23
2018-04-14T06:34:24.028Z,38.80
2018-04-14T06:37:26.507Z,39.07
2018-04-14T06:40:29.007Z,39.63
2018-04-14T06:43:31.510Z,36.80
2018-04-14T06:46:34.018Z,36.07
2018-04-14T06:49:36.668Z,36.50
2018-04-14T06:52:39.187Z,37.60
2018-04-14T06:55:41.679Z,35.40
2018-04-14T06:58:44.185Z,36.30
2018-04-14T07:01:46.665Z,34.03
2018-04-14T07:04:49.201Z,33.27
2018-04-14T07:07:51.653Z,35.23
2018-04-14T07:10:54.135Z,33.80
2018-04-14T07:13:57.832Z,33.87
2018-04-14T07:17:00.354Z,34.93
2018-04-14T07:20:02.819Z,31.40
2018-04-14T07:23:06.255Z,31.70
2018-04-14T07:26:08.773Z,30.77
2018-04-14T07:29:11.334Z,31.63
2018-04-14T07:32:13.842Z,30.80
2018-04-14T07:35:16.395Z,31.67
2018-04-14T07:38:18.873Z,31.93
2018-04-14T07:41:21.472Z,27.20
2018-04-14T07:44:23.958Z,26.83
2018-04-14T07:47:26.452Z,29.40
2018-04-14T07:50:28.937Z,28.30
2018-04-14T07:53:31.560Z,29.00
2018-04-14T07:56:34.079Z,28.10
2018-04-14T07:59:36.564Z,29.60
2018-04-14T08:02:39.199Z,28.37
2018-04-14T08:05:41.663Z,28.10
2018-04-14T08:08:44.198Z,27.87
2018-04-14T08:11:46.725Z,27.70
2018-04-14T08:14:53.052Z,28.80
2018-04-14T08:17:55.534Z,26.70
2018-04-14T08:20:58.066Z,28.23
2018-04-14T08:24:00.563Z,28.07
2018-04-14T08:27:03.063Z,30.10
2018-04-14T08:30:05.612Z,28.03
2018-04-14T08:33:08.105Z,28.27
2018-04-14T08:36:13.387Z,30.10
2018-04-14T08:39:16.097Z,31.00
2018-04-14T08:42:18.652Z,29.37
2018-04-14T08:45:21.147Z,31.00
2018-04-14T08:48:23.678Z,30.30
2018-04-14T08:51:26.156Z,28.90
2018-04-14T08:54:28.681Z,29.30
2018-04-14T09:00:56.502Z,30.70
2018-04-14T09:03:59.022Z,28.40
2018-04-14T09:07:01.570Z,30.97
2018-04-14T09:10:04.076Z,29.23
2018-04-14T09:13:06.649Z,31.47
2018-04-14T09:16:09.257Z,29.83
2018-04-14T09:19:11.753Z,30.40
2018-04-14T09:22:14.253Z,30.23
2018-04-14T09:25:16.882Z,29.07
2018-04-14T09:28:19.457Z,28.83
2018-04-14T09:31:21.967Z,31.40
2018-04-14T09:34:24.470Z,29.37
2018-04-14T09:37:26.985Z,26.83
2018-04-14T09:40:29.527Z,28.17
2018-04-14T09:43:31.980Z,28.27
2018-04-14T09:46:34.532Z,27.77
2018-04-14T09:49:37.040Z,28.77
2018-04-14T09:52:39.580Z,28.50
2018-04-14T09:55:42.071Z,30.13
2018-04-14T09:58:44.549Z,30.33
2018-04-14T10:01:51.882Z,28.80
2018-04-14T10:04:54.429Z,28.77
2018-04-14T10:07:57.028Z,29.60
2018-04-14T10:10:59.555Z,28.07
2018-04-14T10:14:02.031Z,26.60
2018-04-14T10:17:04.555Z,27.33
2018-04-14T10:20:07.020Z,24.80
2018-04-14T10:23:09.511Z,28.20
2018-04-14T10:26:12.024Z,28.40
2018-04-14T10:29:14.510Z,28.20
2018-04-14T10:32:17.140Z,27.80
2018-04-14T10:35:19.686Z,27.57
2018-04-14T10:38:22.180Z,27.90
2018-04-14T10:41:24.651Z,28.20
2018-04-14T10:44:27.156Z,29.10
2018-04-14T10:47:29.731Z,27.90
2018-04-14T10:50:32.217Z,27.67
2018-04-14T10:53:34.816Z,29.20
2018-04-14T10:56:37.314Z,27.70
2018-04-14T10:59:39.827Z,28.40
2018-04-14T11:02:42.297Z,27.40
2018-04-14T11:05:44.832Z,29.67
2018-04-14T11:08:47.325Z,26.40
2018-04-14T11:11:49.827Z,28.63
2018-04-14T11:14:52.398Z,29.10
2018-04-14T11:17:54.941Z,29.33
2018-04-14T11:20:57.513Z,28.47
2018-04-14T11:24:00.016Z,27.63
2018-04-14T11:27:02.551Z,28.37
2018-04-14T11:30:05.693Z,27.77
2018-04-14T11:33:08.208Z,28.03
2018-04-14T11:36:10.721Z,27.90
2018-04-14T11:39:13.174Z,27.97
2018-04-14T11:42:15.692Z,28.90
2018-04-14T11:45:18.251Z,27.87
2018-04-14T11:48:20.783Z,27.77
2018-04-14T11:51:23.258Z,28.40
2018-04-14T11:54:25.758Z,29.70
2018-04-14T11:57:28.256Z,29.27
2018-04-14T12:00:30.762Z,27.53
2018-04-14T12:03:33.396Z,29.10
2018-04-14T12:06:37.037Z,29.80
2018-04-14T12:09:39.558Z,29.90
2018-04-14T12:12:42.163Z,28.13
2018-04-14T12:15:44.648Z,28.53
2018-04-14T12:18:47.233Z,29.40
2018-04-14T12:21:49.749Z,30.60
2018-04-14T12:24:52.358Z,29.67
2018-04-14T12:27:54.923Z,30.07
2018-04-14T12:30:57.439Z,29.07
2018-04-14T12:33:59.993Z,28.67
2018-04-14T12:37:02.457Z,30.67
2018-04-14T12:40:05.001Z,29.97
2018-04-14T12:43:07.589Z,29.37
2018-04-14T12:46:10.073Z,30.13
2018-04-14T12:49:12.558Z,30.30
2018-04-14T12:52:15.109Z,31.30
2018-04-14T12:55:17.588Z,30.47
2018-04-14T12:58:20.124Z,29.60
2018-04-14T13:01:22.616Z,30.47
2018-04-14T13:04:25.156Z,31.63
2018-04-14T13:07:27.621Z,31.80
2018-04-14T13:10:30.111Z,32.13
2018-04-14T13:13:32.560Z,31.10
2018-04-14T13:16:35.054Z,33.00
2018-04-14T13:19:37.672Z,32.07
2018-04-14T13:22:40.192Z,31.77
2018-04-14T13:25:44.563Z,32.80
2018-04-14T13:28:47.148Z,32.30
2018-04-14T13:31:49.760Z,32.47
2018-04-14T13:34:52.213Z,33.17
2018-04-14T13:37:54.714Z,31.67
2018-04-14T13:40:57.229Z,32.83
2018-04-14T13:43:59.701Z,33.67
2018-04-14T13:47:02.205Z,34.13
2018-04-14T13:50:04.727Z,33.07
2018-04-14T13:53:07.258Z,31.20
2018-04-14T13:56:10.653Z,32.53
2018-04-14T13:59:13.118Z,31.40
2018-04-14T14:02:16.387Z,29.47
2018-04-14T14:05:18.871Z,32.70
2018-04-14T14:08:21.367Z,32.03
2018-04-14T14:11:23.894Z,32.10
2018-04-14T14:14:26.406Z,32.90
2018-04-14T14:17:28.961Z,31.57
2018-04-14T14:20:31.485Z,32.00
2018-04-14T14:23:34.025Z,32.60
2018-04-14T14:26:36.575Z,31.30
2018-04-14T14:29:39.061Z,33.00
2018-04-14T14:32:41.578Z,33.60
2018-04-14T14:35:44.099Z,32.80
2018-04-14T14:38:46.616Z,31.93
2018-04-14T14:41:49.180Z,30.90
2018-04-14T14:44:52.388Z,31.97
2018-04-14T14:47:54.861Z,30.80
2018-04-14T14:50:57.348Z,32.70
2018-04-14T14:53:59.881Z,33.37
2018-04-14T14:57:02.370Z,32.00
2018-04-14T15:00:04.971Z,32.43
2018-04-14T15:03:07.527Z,33.90
2018-04-14T15:06:10.037Z,33.47
2018-04-14T15:09:13.392Z,32.10
2018-04-14T15:12:15.950Z,32.63
2018-04-14T15:15:18.490Z,32.57
2018-04-14T15:18:21.068Z,32.00
2018-04-14T15:21:23.572Z,32.43
2018-04-14T15:24:26.248Z,33.20
2018-04-14T15:27:28.800Z,34.10
2018-04-14T15:30:31.350Z,33.90
2018-04-14T15:33:33.872Z,33.83
2018-04-14T15:36:36.424Z,33.20
2018-04-14T15:39:38.909Z,33.17
2018-04-14T15:42:42.024Z,32.37
2018-04-14T15:45:44.773Z,33.07
2018-04-14T15:48:47.367Z,32.50
2018-04-14T15:51:50.009Z,38.80
2018-04-14T15:54:52.812Z,32.97
2018-04-14T15:57:55.441Z,33.97
2018-04-14T16:00:58.093Z,32.87
2018-04-14T16:04:09.657Z,33.50
2018-04-14T16:07:04.822Z,32.77
2018-04-14T16:10:07.601Z,35.67
2018-04-14T16:13:10.712Z,36.63
2018-04-14T16:16:13.251Z,34.17
2018-04-14T16:19:15.936Z,34.90
2018-04-14T16:22:18.514Z,34.23
2018-04-14T16:25:21.098Z,33.10
2018-04-14T16:28:23.731Z,32.37
2018-04-14T16:31:27.030Z,34.80
2018-04-14T16:34:29.644Z,33.23
2018-04-14T16:37:32.455Z,32.10
2018-04-14T16:40:35.119Z,33.73
2018-04-14T16:43:37.740Z,32.80
2018-04-14T16:46:40.543Z,32.30
2018-04-14T16:49:43.151Z,33.03
2018-04-14T16:52:45.775Z,33.90
2018-04-14T16:55:48.573Z,33.70
2018-04-14T16:58:51.198Z,33.40
2018-04-14T17:01:54.628Z,33.30
2018-04-14T17:04:57.361Z,32.07
2018-04-14T17:07:59.975Z,31.00
2018-04-14T17:11:02.529Z,33.10
2018-04-14T17:14:05.091Z,32.87
2018-04-14T17:17:07.743Z,32.07
2018-04-14T17:20:10.372Z,32.43
2018-04-14T17:23:13.033Z,32.53
2018-04-14T17:26:15.620Z,32.90
2018-04-14T17:29:18.253Z,33.80
2018-04-14T17:32:20.964Z,31.27
2018-04-14T17:35:24.089Z,31.93
2018-04-14T17:38:27.552Z,32.83
2018-04-14T17:41:30.131Z,31.77
2018-04-14T17:44:32.718Z,31.70
2018-04-14T17:47:35.277Z,31.40
2018-04-14T17:50:37.877Z,31.07
2018-04-14T17:53:40.417Z,30.53
2018-04-14T17:56:42.924Z,28.60
2018-04-14T17:59:45.515Z,29.60
2018-04-14T18:02:48.097Z,28.47
2018-04-14T18:05:50.786Z,28.70
2018-04-14T18:08:53.431Z,28.03
2018-04-14T18:11:55.995Z,29.60
2018-04-14T18:14:58.528Z,28.50
2018-04-14T18:18:01.036Z,29.13
2018-04-14T18:21:03.582Z,28.10
2018-04-14T18:24:06.147Z,29.63
2018-04-14T18:27:08.690Z,29.97
2018-04-14T18:30:11.372Z,28.57
2018-04-14T18:33:13.877Z,27.20
2018-04-14T18:36:16.411Z,29.47
2018-04-14T18:39:18.919Z,28.87
2018-04-14T18:42:21.456Z,28.67
2018-04-14T18:45:24.003Z,28.47
2018-04-14T18:48:26.546Z,28.53
2018-04-14T18:51:29.075Z,28.23
2018-04-14T18:54:31.557Z,27.10
2018-04-14T18:57:34.123Z,27.40
2018-04-14T19:00:36.592Z,29.27
2018-04-14T19:03:39.170Z,28.97
2018-04-14T19:06:41.815Z,29.17
2018-04-14T19:09:44.315Z,34.10
2018-04-14T19:12:46.847Z,29.63
2018-04-14T19:15:49.412Z,27.37
2018-04-14T19:18:51.965Z,28.97
2018-04-14T19:21:54.459Z,28.30
2018-04-14T19:24:56.998Z,30.10
2018-04-14T19:27:59.459Z,29.50
2018-04-14T19:31:02.008Z,28.93
2018-04-14T19:34:04.552Z,30.17
2018-04-14T19:37:07.054Z,29.40
2018-04-14T19:40:09.544Z,28.90
2018-04-14T19:43:12.073Z,30.30
2018-04-14T19:46:14.596Z,30.30
2018-04-14T19:49:17.094Z,31.50
2018-04-14T19:52:19.651Z,30.07
2018-04-14T19:55:22.164Z,30.83
2018-04-14T19:58:24.739Z,30.30
2018-04-14T20:01:27.198Z,29.03
2018-04-14T20:04:29.822Z,28.70
2018-04-14T20:07:32.323Z,30.20
2018-04-14T20:10:34.876Z,30.67
2018-04-14T20:13:37.558Z,27.60
2018-04-14T20:16:40.129Z,29.87
2018-04-14T20:19:42.665Z,29.30
2018-04-14T20:22:45.222Z,30.27
2018-04-14T20:25:47.713Z,30.90
2018-04-14T20:28:50.599Z,30.90
2018-04-14T20:31:53.243Z,29.90
2018-04-14T20:34:55.838Z,28.70
2018-04-14T20:37:58.377Z,31.60
2018-04-14T20:41:00.937Z,30.23
2018-04-14T20:44:03.497Z,28.10
2018-04-14T20:47:05.997Z,29.77
2018-04-14T20:50:08.550Z,29.20
2018-04-14T20:53:11.139Z,30.47
2018-04-14T20:56:13.670Z,29.70
2018-04-14T20:59:16.213Z,30.50
2018-04-14T21:02:18.865Z,31.20
2018-04-14T21:05:21.448Z,27.80
2018-04-14T21:08:24.011Z,27.13
2018-04-14T21:11:26.539Z,28.37
2018-04-14T21:14:29.093Z,28.70
2018-04-14T21:17:31.665Z,27.03
2018-04-14T21:20:34.127Z,28.53
2018-04-14T21:23:36.706Z,26.50
2018-04-14T21:26:39.197Z,26.73
2018-04-14T21:29:41.686Z,27.70
2018-04-14T21:32:44.183Z,28.50
2018-04-14T21:35:46.774Z,28.20
2018-04-14T21:38:49.281Z,27.80
2018-04-14T21:41:51.812Z,26.90
2018-04-14T21:44:54.306Z,26.80
2018-04-14T21:47:56.815Z,26.63
2018-04-14T21:50:59.323Z,26.73
2018-04-14T21:54:01.822Z,24.83
2018-04-14T21:57:04.343Z,23.10
2018-04-14T22:00:06.874Z,24.90
2018-04-14T22:03:09.376Z,23.97
2018-04-14T22:06:11.897Z,23.23
2018-04-14T22:09:14.452Z,24.27
2018-04-14T22:12:16.949Z,22.80
2018-04-14T22:15:19.476Z,23.10
2018-04-14T22:18:21.968Z,24.00
2018-04-14T22:21:24.465Z,23.30
2018-04-14T22:24:26.959Z,23.33
2018-04-14T22:27:29.499Z,25.50
2018-04-14T22:30:31.991Z,24.13
2018-04-14T22:33:34.621Z,21.60
2018-04-14T22:36:37.208Z,23.70
2018-04-14T22:39:39.728Z,24.47
2018-04-14T22:42:42.272Z,21.80
2018-04-14T22:45:44.843Z,24.00
2018-04-14T22:48:47.304Z,23.87
2018-04-14T22:51:49.818Z,23.40
2018-04-14T22:54:52.384Z,23.70
2018-04-14T22:57:54.844Z,24.10
2018-04-14T23:00:57.365Z,24.47
2018-04-14T23:03:59.931Z,24.17
2018-04-14T23:07:02.456Z,24.57
2018-04-14T23:10:04.990Z,24.90
2018-04-14T23:13:07.653Z,25.57
2018-04-14T23:16:10.117Z,25.40
2018-04-14T23:19:12.595Z,28.40
2018-04-14T23:22:15.153Z,26.57
2018-04-14T23:25:17.633Z,28.37
2018-04-14T23:28:20.142Z,26.80
2018-04-14T23:31:22.723Z,28.83
2018-04-14T23:34:25.285Z,28.33
2018-04-14T23:37:27.846Z,27.17
2018-04-14T23:40:30.415Z,27.33
2018-04-14T23:43:32.976Z,29.40
2018-04-14T23:46:35.535Z,29.60
2018-04-14T23:49:38.040Z,28.10
2018-04-14T23:52:40.572Z,27.07
2018-04-14T23:55:43.057Z,28.57
2018-04-14T23:58:45.555Z,28.20
